QTR4B OTHH-OBBI
Flight info
| Callsign | QTR4B |
|---|---|
| Flight time | 0h 20m |
| Altitude | 12000 |
| Route | TULUB M444 KINID DCT BHR |
| Aircraft | A320/M-SDE3FGHIRWY/LB1 |
Departure
| Time | 2026-05-08 05:44 |
|---|---|
| Airport | Hamad International Airport (OTHH) |
Arrival
| Time | 2026-05-08 06:04 |
|---|---|
| Airport | Bahrain International Airport (OBBI) |
| Time | Latitude | Longitude | Altitude | Speed | Heading |
|---|---|---|---|---|---|
| 2026-05-08 05:28 | 25.25970 | 51.61096 | 30 ft | 0 kts | 338° |
| 2026-05-08 05:39 | 25.25958 | 51.61101 | 30 ft | 4 kts | 338° |
| 2026-05-08 05:39 | 25.25934 | 51.61113 | 30 ft | 4 kts | 329° |
| 2026-05-08 05:39 | 25.25916 | 51.61129 | 30 ft | 1 kts | 308° |
| 2026-05-08 05:39 | 25.25916 | 51.61113 | 30 ft | 4 kts | 248° |
| 2026-05-08 05:40 | 25.25900 | 51.61097 | 30 ft | 4 kts | 217° |
| 2026-05-08 05:40 | 25.25877 | 51.61081 | 30 ft | 4 kts | 216° |
| 2026-05-08 05:40 | 25.25862 | 51.61057 | 30 ft | 4 kts | 244° |
| 2026-05-08 05:40 | 25.25860 | 51.61050 | 30 ft | 0 kts | 248° |
| 2026-05-08 05:42 | 25.25859 | 51.61048 | 30 ft | 2 kts | 248° |
| 2026-05-08 05:42 | 25.25832 | 51.60972 | 30 ft | 14 kts | 248° |
| 2026-05-08 05:42 | 25.25792 | 51.60861 | 30 ft | 17 kts | 248° |
| 2026-05-08 05:43 | 25.25743 | 51.60733 | 30 ft | 19 kts | 249° |
| 2026-05-08 05:43 | 25.25692 | 51.60585 | 27 ft | 23 kts | 249° |
| 2026-05-08 05:43 | 25.25746 | 51.60446 | 27 ft | 23 kts | 336° |
| 2026-05-08 05:43 | 25.26048 | 51.60312 | 29 ft | 79 kts | 339° |
| 2026-05-08 05:44 | 25.26732 | 51.60014 | 29 ft | 130 kts | 339° |
| 2026-05-08 05:44 | 25.27700 | 51.59585 | 111 ft | 164 kts | 338° |
| 2026-05-08 05:44 | 25.28768 | 51.59094 | 597 ft | 173 kts | 339° |
| 2026-05-08 05:44 | 25.29952 | 51.58572 | 838 ft | 195 kts | 340° |
| 2026-05-08 05:45 | 25.31295 | 51.57985 | 1080 ft | 220 kts | 340° |
| 2026-05-08 05:45 | 25.32785 | 51.57336 | 1497 ft | 237 kts | 342° |
| 2026-05-08 05:45 | 25.34319 | 51.56664 | 2176 ft | 242 kts | 341° |
| 2026-05-08 05:45 | 25.35894 | 51.55970 | 2914 ft | 246 kts | 341° |
| 2026-05-08 05:46 | 25.37503 | 51.55259 | 3628 ft | 253 kts | 340° |
| 2026-05-08 05:46 | 25.39159 | 51.54525 | 4319 ft | 259 kts | 340° |
| 2026-05-08 05:46 | 25.40847 | 51.53778 | 5043 ft | 264 kts | 339° |
| 2026-05-08 05:46 | 25.42580 | 51.53009 | 5632 ft | 273 kts | 338° |
| 2026-05-08 05:47 | 25.44365 | 51.52215 | 6295 ft | 281 kts | 337° |
| 2026-05-08 05:47 | 25.46201 | 51.51398 | 6919 ft | 287 kts | 337° |
| 2026-05-08 05:47 | 25.48115 | 51.50735 | 7588 ft | 293 kts | 352° |
| 2026-05-08 05:47 | 25.50158 | 51.50873 | 8261 ft | 297 kts | 15° |
| 2026-05-08 05:48 | 25.52141 | 51.51519 | 8986 ft | 299 kts | 17° |
| 2026-05-08 05:48 | 25.54146 | 51.52186 | 9745 ft | 302 kts | 17° |
| 2026-05-08 05:48 | 25.56173 | 51.52862 | 10284 ft | 312 kts | 18° |
| 2026-05-08 05:48 | 25.58328 | 51.53578 | 10439 ft | 335 kts | 18° |
| 2026-05-08 05:49 | 25.60606 | 51.54327 | 10826 ft | 346 kts | 18° |
| 2026-05-08 05:49 | 25.62942 | 51.55071 | 11411 ft | 350 kts | 13° |
| 2026-05-08 05:49 | 25.65372 | 51.55415 | 11862 ft | 356 kts | 2° |
| 2026-05-08 05:49 | 25.67010 | 51.55306 | 11964 ft | 355 kts | 352° |
| 2026-05-08 05:50 | 25.69389 | 51.54633 | 12025 ft | 353 kts | 342° |
| 2026-05-08 05:50 | 25.71709 | 51.53777 | 12019 ft | 351 kts | 342° |
| 2026-05-08 05:50 | 25.74032 | 51.52937 | 12023 ft | 351 kts | 343° |
| 2026-05-08 05:50 | 25.76358 | 51.52107 | 12020 ft | 351 kts | 343° |
| 2026-05-08 05:51 | 25.78683 | 51.51278 | 12017 ft | 351 kts | 343° |
| 2026-05-08 05:51 | 25.81007 | 51.50449 | 12021 ft | 352 kts | 342° |
| 2026-05-08 05:51 | 25.83262 | 51.49408 | 12023 ft | 352 kts | 332° |
| 2026-05-08 05:51 | 25.85261 | 51.47837 | 12025 ft | 353 kts | 318° |
| 2026-05-08 05:52 | 25.86904 | 51.45817 | 12023 ft | 352 kts | 308° |
| 2026-05-08 05:52 | 25.88398 | 51.43664 | 12024 ft | 353 kts | 308° |
| 2026-05-08 05:52 | 25.89901 | 51.41509 | 12022 ft | 353 kts | 308° |
| 2026-05-08 05:52 | 25.91406 | 51.39361 | 11849 ft | 347 kts | 308° |
| 2026-05-08 05:53 | 25.92871 | 51.37277 | 11612 ft | 338 kts | 308° |
| 2026-05-08 05:53 | 25.94304 | 51.35242 | 11370 ft | 331 kts | 308° |
| 2026-05-08 05:53 | 25.95709 | 51.33240 | 11138 ft | 325 kts | 307° |
| 2026-05-08 05:53 | 25.97070 | 51.31265 | 10904 ft | 318 kts | 303° |
| 2026-05-08 05:54 | 25.98134 | 51.29156 | 10738 ft | 310 kts | 296° |
| 2026-05-08 05:54 | 25.99121 | 51.27036 | 10410 ft | 308 kts | 295° |
| 2026-05-08 05:54 | 26.00095 | 51.24957 | 9907 ft | 306 kts | 295° |
| 2026-05-08 05:54 | 26.01075 | 51.22872 | 9444 ft | 304 kts | 295° |
| 2026-05-08 05:55 | 26.02053 | 51.20792 | 9072 ft | 303 kts | 296° |
| 2026-05-08 05:55 | 26.03026 | 51.18720 | 8770 ft | 301 kts | 296° |
| 2026-05-08 05:55 | 26.03982 | 51.16674 | 8419 ft | 300 kts | 296° |
| 2026-05-08 05:55 | 26.04934 | 51.14633 | 8194 ft | 295 kts | 297° |
| 2026-05-08 05:56 | 26.05874 | 51.12612 | 7861 ft | 294 kts | 297° |
| 2026-05-08 05:56 | 26.06814 | 51.10592 | 7539 ft | 292 kts | 297° |
| 2026-05-08 05:56 | 26.07745 | 51.08593 | 7234 ft | 290 kts | 298° |
| 2026-05-08 05:56 | 26.08671 | 51.06604 | 6935 ft | 288 kts | 299° |
| 2026-05-08 05:57 | 26.09589 | 51.04638 | 6640 ft | 286 kts | 298° |
| 2026-05-08 05:57 | 26.10502 | 51.02685 | 6102 ft | 283 kts | 299° |
| 2026-05-08 05:57 | 26.11351 | 51.00748 | 5545 ft | 281 kts | 293° |
| 2026-05-08 05:57 | 26.11998 | 50.98718 | 5076 ft | 275 kts | 293° |
| 2026-05-08 05:58 | 26.12623 | 50.96743 | 4719 ft | 266 kts | 294° |
| 2026-05-08 05:58 | 26.13227 | 50.94838 | 4363 ft | 256 kts | 294° |
| 2026-05-08 05:58 | 26.13829 | 50.92951 | 4035 ft | 255 kts | 295° |
| 2026-05-08 05:58 | 26.14418 | 50.91123 | 3719 ft | 255 kts | 295° |
| 2026-05-08 05:59 | 26.15016 | 50.89260 | 3476 ft | 252 kts | 295° |
| 2026-05-08 05:59 | 26.15588 | 50.87465 | 3386 ft | 241 kts | 295° |
| 2026-05-08 05:59 | 26.16132 | 50.85747 | 3295 ft | 230 kts | 294° |
| 2026-05-08 05:59 | 26.16649 | 50.84100 | 3199 ft | 220 kts | 295° |
| 2026-05-08 06:00 | 26.17148 | 50.82519 | 3099 ft | 216 kts | 295° |
| 2026-05-08 06:00 | 26.17650 | 50.80946 | 3007 ft | 216 kts | 295° |
| 2026-05-08 06:00 | 26.18155 | 50.79371 | 2916 ft | 216 kts | 295° |
| 2026-05-08 06:00 | 26.18744 | 50.77871 | 2652 ft | 209 kts | 304° |
| 2026-05-08 06:01 | 26.19476 | 50.76523 | 2346 ft | 196 kts | 308° |
| 2026-05-08 06:01 | 26.20168 | 50.75317 | 2098 ft | 172 kts | 309° |
| 2026-05-08 06:01 | 26.20780 | 50.74257 | 1881 ft | 153 kts | 310° |
| 2026-05-08 06:01 | 26.21335 | 50.73300 | 1696 ft | 143 kts | 311° |
| 2026-05-08 06:02 | 26.21866 | 50.72386 | 1526 ft | 139 kts | 311° |
| 2026-05-08 06:02 | 26.22389 | 50.71484 | 1348 ft | 138 kts | 310° |
| 2026-05-08 06:02 | 26.22902 | 50.70600 | 1176 ft | 137 kts | 310° |
| 2026-05-08 06:02 | 26.23421 | 50.69704 | 1001 ft | 138 kts | 309° |
| 2026-05-08 06:03 | 26.23940 | 50.68806 | 835 ft | 138 kts | 307° |
| 2026-05-08 06:03 | 26.24459 | 50.67909 | 696 ft | 136 kts | 308° |
| 2026-05-08 06:03 | 26.24969 | 50.67024 | 502 ft | 135 kts | 307° |
| 2026-05-08 06:03 | 26.25474 | 50.66147 | 346 ft | 134 kts | 308° |
| 2026-05-08 06:04 | 26.25992 | 50.65262 | 140 ft | 137 kts | 305° |
| 2026-05-08 06:04 | 26.26497 | 50.64379 | 28 ft | 130 kts | 304° |
| 2026-05-08 06:04 | 26.26893 | 50.63696 | 20 ft | 66 kts | 302° |
| 2026-05-08 06:04 | 26.26956 | 50.63486 | 18 ft | 19 kts | 234° |
| 2026-05-08 06:05 | 26.26929 | 50.63461 | 18 ft | 1 kts | 214° |
| 2026-05-08 06:05 | 26.26915 | 50.63451 | 19 ft | 3 kts | 213° |
| 2026-05-08 06:05 | 26.26892 | 50.63435 | 18 ft | 5 kts | 213° |
| 2026-05-08 06:05 | 26.26833 | 50.63393 | 19 ft | 10 kts | 212° |
| 2026-05-08 06:06 | 26.26789 | 50.63330 | 19 ft | 11 kts | 268° |
| 2026-05-08 06:06 | 26.26785 | 50.63262 | 19 ft | 8 kts | 233° |
| 2026-05-08 06:06 | 26.26733 | 50.63226 | 21 ft | 3 kts | 213° |
| 2026-05-08 06:06 | 26.26720 | 50.63217 | 19 ft | 3 kts | 213° |
| 2026-05-08 06:07 | 26.26717 | 50.63215 | 19 ft | 0 kts | 213° |